Time;durP1;ratioP1;P1;durP2;ratioP2;P2;SDS_P1;SDS_P2;PMS_P1;PMS_P2;Temp;Humidity;BMP_temperature;BMP_pressure;BME280_temperature;BME280_humidity;BME280_pressure;Samples;Min_cycle;Max_cycle;Signal;HPM_P1;HPM_P2
2021/11/18 00:00:53;;;;;;;23.38;11.48;;;;;;;5.61;100.00;101057.06;5242208;56;1141020;-78
2021/11/18 00:05:59;;;;;;;25.03;12.13;;;;;;;5.63;100.00;101053.91;5242490;56;1141120;-77
2021/11/18 00:11:09;;;;;;;19.83;11.10;;;;;;;5.66;100.00;101049.34;5242426;56;1141077;-75
2021/11/18 00:16:16;;;;;;;25.50;11.37;;;;;;;5.69;100.00;101055.37;5242364;56;1138966;-75
2021/11/18 00:21:27;;;;;;;24.63;11.23;;;;;;;5.70;100.00;101060.55;5230839;56;21448;-75
2021/11/18 00:26:34;;;;;;;21.20;11.30;;;;;;;5.71;100.00;101063.56;5165135;57;1138941;-76
2021/11/18 00:31:41;;;;;;;19.27;10.83;;;;;;;5.75;100.00;101066.43;5164975;57;1143145;-77
2021/11/18 00:36:47;;;;;;;29.67;12.67;;;;;;;5.78;100.00;101072.00;5164762;57;1143162;-79
2021/11/18 00:41:53;;;;;;;24.93;10.50;;;;;;;5.79;100.00;101089.45;5164978;57;1143433;-80
2021/11/18 00:46:59;;;;;;;24.50;12.17;;;;;;;5.79;100.00;101084.20;5164683;57;1143339;-80
2021/11/18 00:52:05;;;;;;;20.90;9.50;;;;;;;5.82;100.00;101085.33;5164625;57;1143140;-79
2021/11/18 00:57:11;;;;;;;20.27;10.13;;;;;;;5.84;100.00;101085.66;5164752;57;1141103;-78
2021/11/18 01:02:19;;;;;;;21.10;10.47;;;;;;;5.87;100.00;101089.45;5164684;57;1143375;-78
2021/11/18 01:07:24;;;;;;;17.30;9.33;;;;;;;5.88;100.00;101091.61;5164646;57;1143109;-76
2021/11/18 01:12:32;;;;;;;26.17;12.47;;;;;;;5.89;100.00;101099.44;5164457;57;1141071;-78
2021/11/18 01:17:40;;;;;;;13.60;7.50;;;;;;;5.92;100.00;101105.02;5164763;57;1143151;-81
2021/11/18 01:22:47;;;;;;;17.63;8.10;;;;;;;5.94;100.00;101103.17;5217820;56;1141047;-80
2021/11/18 01:27:54;;;;;;;15.87;8.03;;;;;;;5.96;100.00;101103.45;5242154;56;1141202;-78
2021/11/18 01:33:03;;;;;;;21.33;8.93;;;;;;;5.97;100.00;101113.03;5241752;56;1141233;-79
2021/11/18 01:38:15;;;;;;;18.35;7.15;;;;;;;6.00;100.00;101112.03;5242075;56;1141338;-80
2021/11/18 01:43:25;;;;;;;17.13;9.20;;;;;;;5.99;100.00;101115.13;5242148;56;1141071;-80
2021/11/18 01:48:31;;;;;;;20.40;8.50;;;;;;;6.02;100.00;101115.44;5242653;56;1141384;-81
2021/11/18 01:53:42;;;;;;;13.70;8.37;;;;;;;6.04;100.00;101125.88;5242666;56;1141189;-78
2021/11/18 01:58:57;;;;;;;29.27;8.10;;;;;;;6.05;100.00;101124.95;5242791;56;1141285;-79
2021/11/18 02:04:15;;;;;;;18.83;8.10;;;;;;;6.05;100.00;101117.92;5227314;56;1141074;-78
2021/11/18 02:09:29;;;;;;;14.27;7.77;;;;;;;6.07;100.00;101111.28;5242672;56;1141287;-79
2021/11/18 02:14:38;;;;;;;19.50;7.97;;;;;;;6.09;100.00;101111.60;5179074;56;1140992;-80
2021/11/18 02:19:48;;;;;;;20.10;8.47;;;;;;;6.09;100.00;101108.97;5113104;56;1141468;-78
2021/11/18 02:24:58;;;;;;;26.30;8.80;;;;;;;6.08;100.00;101115.15;5238272;56;1141105;-80
2021/11/18 02:30:06;;;;;;;14.27;7.90;;;;;;;6.08;100.00;101115.15;5242683;56;1141181;-78
2021/11/18 02:35:22;;;;;;;17.10;8.87;;;;;;;6.07;100.00;101113.45;5242787;56;1139186;-79
2021/11/18 02:40:30;;;;;;;19.13;8.67;;;;;;;6.08;100.00;101108.59;5242745;56;1139117;-77
2021/11/18 02:45:37;;;;;;;16.97;8.13;;;;;;;6.08;100.00;101114.30;5242763;56;1139046;-78
2021/11/18 02:50:48;;;;;;;25.23;11.03;;;;;;;6.08;100.00;101110.36;5242386;56;1138991;-77
2021/11/18 02:55:56;;;;;;;21.37;8.50;;;;;;;6.07;100.00;101122.64;5242588;56;1141358;-77
2021/11/18 03:01:22;;;;;;;18.90;7.47;;;;;;;6.07;100.00;101120.48;5242569;56;1139007;-78
2021/11/18 03:06:29;;;;;;;19.40;8.10;;;;;;;6.07;100.00;101121.33;5242559;56;1139008;-78
2021/11/18 03:11:36;;;;;;;20.50;9.03;;;;;;;6.08;100.00;101119.55;5242698;56;1138822;-78
2021/11/18 03:16:43;;;;;;;21.17;8.37;;;;;;;6.10;100.00;101126.89;5242705;56;1138988;-78
2021/11/18 03:21:50;;;;;;;17.93;8.47;;;;;;;6.09;100.00;101126.51;5204234;56;1139061;-80
2021/11/18 03:26:55;;;;;;;19.63;8.77;;;;;;;6.09;100.00;101123.88;5165202;57;1137221;-79
2021/11/18 03:32:05;;;;;;;22.27;9.53;;;;;;;6.11;100.00;101136.48;5177512;57;1141045;-81
2021/11/18 03:37:11;;;;;;;22.90;9.03;;;;;;;6.10;100.00;101150.53;5250247;56;1140915;-77
2021/11/18 03:42:17;;;;;;;20.60;8.47;;;;;;;6.06;100.00;101147.20;5165250;57;1141022;-81
2021/11/18 03:47:23;;;;;;;19.53;9.70;;;;;;;6.09;100.00;101150.14;5165082;57;1141082;-78
2021/11/18 03:52:29;;;;;;;23.87;9.60;;;;;;;6.09;100.00;101152.77;5164819;57;1141036;-80
2021/11/18 03:57:35;;;;;;;25.17;7.97;;;;;;;6.12;100.00;101160.00;5165089;57;1141074;-78
2021/11/18 04:02:43;;;;;;;26.53;9.60;;;;;;;6.16;100.00;101163.34;5164661;56;1141099;-79
2021/11/18 04:07:52;;;;;;;22.87;8.10;;;;;;;6.20;100.00;101172.78;5164923;57;1141006;-80
2021/11/18 04:12:59;;;;;;;21.03;9.87;;;;;;;6.20;100.00;101174.09;5164897;57;1140986;-78
2021/11/18 04:18:06;;;;;;;20.17;7.30;;;;;;;6.22;100.00;101180.13;5164939;57;1141029;-80
2021/11/18 04:23:14;;;;;;;16.90;6.33;;;;;;;6.25;100.00;101191.34;5225007;56;1140915;-77
2021/11/18 04:28:20;;;;;;;17.33;6.63;;;;;;;6.26;100.00;101193.02;5242366;56;1140985;-79
2021/11/18 04:33:29;;;;;;;19.90;7.10;;;;;;;6.29;100.00;101194.64;5242257;56;1141046;-78
2021/11/18 04:38:35;;;;;;;24.20;8.63;;;;;;;6.33;100.00;101197.52;5242458;56;1141043;-77
2021/11/18 04:43:43;;;;;;;33.30;10.57;;;;;;;6.31;100.00;101190.17;5218322;56;1141141;-78
2021/11/18 04:48:49;;;;;;;21.27;8.00;;;;;;;6.34;100.00;101196.59;5130229;56;1143289;-80
2021/11/18 04:53:55;;;;;;;20.30;9.10;;;;;;;6.35;100.00;101202.23;5077727;57;1141069;-83
2021/11/18 04:59:03;;;;;;;24.83;8.90;;;;;;;6.35;100.00;101187.78;5077949;57;1141115;-80
2021/11/18 05:04:11;;;;;;;30.80;9.67;;;;;;;6.37;100.00;101192.50;5078124;57;1141045;-85
2021/11/18 05:09:17;;;;;;;19.77;7.20;;;;;;;6.36;100.00;101200.00;5078221;57;1141084;-84
2021/11/18 05:14:23;;;;;;;21.60;8.35;;;;;;;6.35;100.00;101200.92;5077949;57;1141109;-79
2021/11/18 05:19:31;;;;;;;22.60;8.00;;;;;;;6.34;100.00;101202.70;5080683;57;1141007;-84
2021/11/18 05:24:38;;;;;;;15.37;6.10;;;;;;;6.35;100.00;101204.86;5161660;56;1141166;-80
2021/11/18 05:29:44;;;;;;;20.47;9.27;;;;;;;6.35;100.00;101212.74;5161575;56;1141392;-80
2021/11/18 05:34:51;;;;;;;17.27;6.47;;;;;;;6.35;100.00;101208.80;5161873;56;1141174;-77
2021/11/18 05:39:56;;;;;;;19.73;6.90;;;;;;;6.31;100.00;101204.16;5161386;56;1141081;-79
2021/11/18 05:45:03;;;;;;;24.40;5.80;;;;;;;6.29;100.00;101211.72;5194558;56;1141154;-79
2021/11/18 05:50:13;;;;;;;18.13;6.57;;;;;;;6.28;100.00;101228.40;5241909;56;1141303;-79
2021/11/18 05:55:24;;;;;;;21.93;9.47;;;;;;;6.24;100.00;101223.78;5242243;56;1141057;-78
2021/11/18 06:00:33;;;;;;;18.37;6.40;;;;;;;6.23;100.00;101235.67;5210497;56;1141083;-83
2021/11/18 06:05:39;;;;;;;20.10;7.60;;;;;;;6.21;100.00;101242.31;5242281;56;1141001;-78
2021/11/18 06:10:50;;;;;;;21.42;5.40;;;;;;;6.22;100.00;101241.84;5241954;56;1141039;-79
2021/11/18 06:15:55;;;;;;;17.37;5.20;;;;;;;6.22;100.00;101242.70;5163021;57;1139049;-80
2021/11/18 06:21:02;;;;;;;20.20;6.77;;;;;;;6.21;100.00;101247.56;5134104;57;1139068;-83
2021/11/18 06:26:10;;;;;;;24.23;6.33;;;;;;;6.20;100.00;101248.48;5076939;57;1139024;-80
2021/11/18 06:31:16;;;;;;;17.80;6.90;;;;;;;6.19;100.00;101255.13;5077059;57;1138970;-81
2021/11/18 06:36:24;;;;;;;24.80;6.17;;;;;;;6.18;100.00;101253.42;5077531;57;1139068;-82
2021/11/18 06:41:30;;;;;;;23.17;6.47;;;;;;;6.19;100.00;101264.31;5155317;57;1139168;-80
2021/11/18 06:46:37;;;;;;;17.93;6.57;;;;;;;6.15;100.00;101254.88;5165370;57;1138935;-79
2021/11/18 06:51:43;;;;;;;23.30;6.70;;;;;;;6.15;100.00;101254.88;5165413;57;1138986;-81
2021/11/18 06:56:50;;;;;;;24.87;6.83;;;;;;;6.19;100.00;101261.23;5165260;57;1139051;-80
2021/11/18 07:01:58;;;;;;;28.60;6.47;;;;;;;6.19;100.00;101269.57;5165356;57;1139091;-79
2021/11/18 07:07:05;;;;;;;29.05;5.85;;;;;;;6.21;100.00;101268.58;5165104;57;1139013;-81
2021/11/18 07:12:16;;;;;;;19.80;6.33;;;;;;;6.19;100.00;101274.36;5165376;57;1139016;-79
2021/11/18 07:17:22;;;;;;;20.33;5.77;;;;;;;6.21;100.00;101282.17;5165349;57;1138988;-78
2021/11/18 07:22:30;;;;;;;16.83;6.80;;;;;;;6.19;100.00;101283.55;5214077;56;1139033;-76
2021/11/18 07:27:38;;;;;;;16.13;5.47;;;;;;;6.18;100.00;101292.36;5236811;56;1138967;-79
2021/11/18 07:32:45;;;;;;;20.03;4.17;;;;;;;6.19;100.00;101296.69;5242549;56;1137075;-78
2021/11/18 07:37:53;;;;;;;22.55;6.42;;;;;;;6.19;100.00;101295.83;5253781;56;1141019;-80
2021/11/18 07:43:01;;;;;;;19.17;5.47;;;;;;;6.20;100.00;101307.58;5158304;56;1140947;-80
2021/11/18 07:48:24;;;;;;;;;;;;;;;6.20;100.00;101315.47;5188521;56;1141100;-81
2021/11/18 07:53:32;;;;;;;10.60;3.47;;;;;;;6.23;100.00;101316.64;5082504;57;976499;-80
2021/11/18 07:58:38;;;;;;;13.73;4.63;;;;;;;6.23;100.00;101311.84;5075558;58;1139004;-81
2021/11/18 08:03:44;;;;;;;20.30;6.00;;;;;;;6.26;100.00;101312.53;5075549;58;1141095;-78
2021/11/18 08:08:56;;;;;;;17.37;5.67;;;;;;;6.29;100.00;101332.55;5075603;58;1141125;-81
2021/11/18 08:14:07;;;;;;;17.30;4.83;;;;;;;6.30;100.00;101329.00;5075471;58;1140997;-82
2021/11/18 08:19:14;;;;;;;22.40;5.97;;;;;;;6.32;100.00;101337.67;5075413;58;1141052;-80
2021/11/18 08:24:22;;;;;;;25.90;10.73;;;;;;;6.34;100.00;101346.34;5080031;58;1141200;-79
2021/11/18 08:29:31;;;;;;;101.17;60.40;;;;;;;6.35;100.00;101364.66;5079839;58;1143275;-79
2021/11/18 08:34:38;;;;;;;48.93;25.43;;;;;;;6.34;100.00;101338.00;5079887;58;1145462;-82
2021/11/18 08:39:50;;;;;;;22.43;10.53;;;;;;;6.37;100.00;101345.34;5079721;58;1143184;-82
2021/11/18 08:44:59;;;;;;;19.90;9.97;;;;;;;6.41;100.00;101337.26;5079885;58;1143184;-79
2021/11/18 08:50:11;;;;;;;78.87;27.23;;;;;;;6.47;100.00;101335.63;5069153;58;1141140;-79
2021/11/18 08:55:22;;;;;;;79.33;27.40;;;;;;;6.53;100.00;101341.92;5067907;58;1143159;-80
2021/11/18 09:00:45;;;;;;;107.87;42.27;;;;;;;6.56;100.00;101329.95;5067869;58;1143176;-81
2021/11/18 09:05:58;;;;;;;95.33;35.73;;;;;;;6.62;100.00;101328.80;5068007;58;1145402;-81
2021/11/18 09:11:10;;;;;;;38.93;15.33;;;;;;;6.71;100.00;101321.80;5067777;58;1143167;-83
2021/11/18 09:16:19;;;;;;;18.83;6.67;;;;;;;6.75;100.00;101327.73;5067468;58;1143116;-78
2021/11/18 09:21:28;;;;;;;17.63;7.27;;;;;;;6.85;100.00;101316.70;5063593;58;1141109;-82
2021/11/18 09:26:38;;;;;;;22.07;5.87;;;;;;;6.92;100.00;101317.23;5063626;58;1139010;-82
2021/11/18 09:31:45;;;;;;;26.50;6.63;;;;;;;6.97;100.00;101329.70;5063458;58;1139075;-78
2021/11/18 09:36:50;;;;;;;23.52;6.08;;;;;;;7.01;100.00;101345.73;5063392;58;1139010;-81
2021/11/18 09:42:04;;;;;;;14.93;5.43;;;;;;;7.02;100.00;101349.59;5063644;58;1139313;-82
2021/11/18 09:48:00;;;;;;;19.07;8.20;;;;;;;7.00;100.00;101345.34;5063376;58;1138940;-79
2021/11/18 09:53:35;;;;;;;17.87;6.92;;;;;;;6.99;100.00;101360.73;5063689;58;1139049;-81
2021/11/18 09:59:19;;;;;;;21.70;6.33;;;;;;;7.01;100.00;101345.73;5063585;58;1141095;-78
2021/11/18 10:04:51;;;;;;;25.97;8.60;;;;;;;7.06;100.00;101331.86;5063445;58;1141157;-81
2021/11/18 10:10:30;;;;;;;74.80;36.00;;;;;;;7.08;100.00;101327.84;5064084;58;1141066;-85
2021/11/18 10:15:43;;;;;;;64.20;32.20;;;;;;;7.11;100.00;101346.11;5064110;58;1143144;-82
2021/11/18 10:20:57;;;;;;;29.13;13.53;;;;;;;7.17;100.00;101356.34;5065323;58;1143129;-79
2021/11/18 10:26:13;;;;;;;18.17;8.55;;;;;;;7.20;100.00;101348.27;5068110;58;1143411;-79
2021/11/18 10:31:30;;;;;;;17.20;6.83;;;;;;;7.20;100.00;101322.81;5068352;58;1141304;-81
2021/11/18 10:37:14;;;;;;;29.27;8.03;;;;;;;7.21;100.00;101344.70;5034939;58;1141037;-85
2021/11/18 10:42:34;;;;;;;24.43;8.75;;;;;;;7.22;100.00;101359.11;5068352;58;1139308;-83
2021/11/18 10:48:02;;;;;;;17.93;7.77;;;;;;;7.26;100.00;101377.77;5067327;58;1138988;-82
2021/11/18 10:53:18;;;;;;;21.13;7.60;;;;;;;7.25;100.00;101361.59;5067342;58;1139171;-82
2021/11/18 10:58:32;;;;;;;14.97;5.50;;;;;;;7.26;100.00;101358.49;5068308;58;1136905;-81
2021/11/18 11:03:44;;;;;;;21.80;5.20;;;;;;;7.24;100.00;101330.09;5068486;58;1141357;-80
2021/11/18 11:09:12;;;;;;;11.43;5.07;;;;;;;7.25;100.00;101323.44;5068837;58;1141300;-81
2021/11/18 11:14:34;;;;;;;17.47;5.03;;;;;;;7.38;100.00;101340.77;5068184;58;1141027;-81
2021/11/18 11:19:47;;;;;;;19.93;6.33;;;;;;;7.52;100.00;101340.05;5067517;58;1141035;-83
2021/11/18 11:25:02;;;;;;;27.35;7.33;;;;;;;7.67;99.89;101337.47;5063914;58;1141017;-80
2021/11/18 11:30:29;;;;;;;12.80;5.30;;;;;;;7.73;99.72;101341.57;5062767;58;1138951;-80
2021/11/18 11:36:00;;;;;;;20.40;6.40;;;;;;;7.73;98.33;101324.45;5059350;58;1139381;-82
2021/11/18 11:41:49;;;;;;;17.60;5.87;;;;;;;7.75;98.82;101307.66;5059281;58;1138936;-85
2021/11/18 11:47:21;;;;;;;16.23;5.27;;;;;;;7.78;98.84;101284.27;5063614;58;1138984;-79
2021/11/18 11:52:46;;;;;;;19.20;4.60;;;;;;;7.80;98.39;101285.00;4986470;59;1137147;-82
2021/11/18 11:57:59;;;;;;;17.17;5.40;;;;;;;7.81;98.39;101288.48;4986361;59;1137002;-82
2021/11/18 12:03:32;;;;;;;18.27;6.78;;;;;;;7.88;98.98;101285.92;4986945;59;1136935;-83
2021/11/18 12:08:52;;;;;;;22.57;5.67;;;;;;;7.95;97.91;101276.73;4986642;59;1135271;-84
2021/11/18 12:14:31;;;;;;;28.17;6.40;;;;;;;7.97;98.35;101261.23;4986676;59;1139096;-80
2021/11/18 12:20:03;;;;;;;16.73;4.50;;;;;;;7.91;97.92;101255.00;4982440;59;1139118;-81
2021/11/18 12:25:17;;;;;;;13.63;4.03;;;;;;;8.00;98.19;101268.13;4924181;58;1139089;-81
2021/11/18 12:30:51;;;;;;;21.33;4.83;;;;;;;8.05;98.13;101267.41;5076550;58;1138887;-83
2021/11/18 12:36:25;;;;;;;24.37;6.00;;;;;;;8.08;98.18;101274.69;5076740;58;1138928;-79
2021/11/18 12:41:43;;;;;;;14.33;5.77;;;;;;;8.09;98.02;101280.34;5076499;58;1138997;-82
2021/11/18 12:47:16;;;;;;;27.37;8.07;;;;;;;8.08;98.17;101250.98;5076580;58;1139217;-85
2021/11/18 12:52:32;;;;;;;22.30;5.90;;;;;;;8.08;97.98;101247.49;5079582;57;1137207;-85
2021/11/18 12:57:42;;;;;;;15.17;3.97;;;;;;;8.09;97.87;101259.73;5080922;57;1137060;-84
2021/11/18 13:03:02;;;;;;;23.87;7.50;;;;;;;8.12;98.02;101263.02;5080971;57;1136843;-86
2021/11/18 13:08:46;;;;;;;22.03;5.73;;;;;;;8.35;97.88;101261.78;5081277;57;1137048;-88
2021/11/18 13:14:17;;;;;;;16.23;4.90;;;;;;;8.44;96.89;101257.30;5077007;58;1135094;-86
2021/11/18 13:19:32;;;;;;;28.33;9.77;;;;;;;8.37;96.86;101259.91;5080605;57;1138901;-85
2021/11/18 13:25:00;;;;;;;12.27;4.60;;;;;;;8.29;96.98;101242.31;5078201;57;1139035;-85
2021/11/18 13:30:11;;;;;;;22.10;5.43;;;;;;;8.21;97.17;101234.02;5078205;57;1139033;-87
2021/11/18 13:35:30;;;;;;;14.67;5.13;;;;;;;8.14;97.49;101233.95;5076653;57;1138282;-85
2021/11/18 13:40:39;;;;;;;15.23;5.20;;;;;;;8.06;97.82;101250.67;5074217;57;1138960;-85
2021/11/18 13:46:08;;;;;;;24.80;9.13;;;;;;;8.01;98.16;101271.14;5077905;57;1138884;-85
2021/11/18 13:51:15;;;;;;;18.80;10.60;;;;;;;7.97;98.48;101280.14;5037014;57;1138952;-86
2021/11/18 13:56:44;;;;;;;23.13;6.80;;;;;;;7.96;98.69;101272.70;5117120;57;1141475;-84
2021/11/18 14:02:09;;;;;;;18.57;6.57;;;;;;;7.94;98.91;101269.33;5108949;57;1139102;-86
2021/11/18 14:07:18;;;;;;;14.77;4.90;;;;;;;7.93;98.89;101257.09;5116633;57;1139000;-85
2021/11/18 14:12:58;;;;;;;25.23;5.67;;;;;;;7.93;98.95;101250.51;5149110;57;1138935;-85
2021/11/18 14:18:24;;;;;;;16.80;5.90;;;;;;;7.94;99.10;101240.36;5148412;57;1136910;-86
2021/11/18 14:23:48;;;;;;;22.40;8.03;;;;;;;7.97;98.98;101252.48;5089370;57;1136935;-85
2021/11/18 14:29:47;;;;;;;47.37;13.90;;;;;;;7.97;99.12;101248.53;5156947;56;1136831;-86
2021/11/18 14:35:09;;;;;;;90.97;28.23;;;;;;;7.97;99.28;101253.33;5066982;57;1141248;-86
2021/11/18 14:40:31;;;;;;;20.40;7.40;;;;;;;7.96;99.33;101260.84;5060071;58;1141080;-85
2021/11/18 14:45:38;;;;;;;23.70;7.07;;;;;;;7.96;99.46;101266.58;5046203;57;1139061;-86
2021/11/18 14:51:08;;;;;;;25.67;8.23;;;;;;;7.97;99.52;101255.12;5047123;57;1138947;-85
2021/11/18 14:56:27;;;;;;;25.10;7.57;;;;;;;7.99;99.58;101259.84;5135846;57;1138889;-85
2021/11/18 15:01:41;;;;;;;23.50;7.93;;;;;;;7.97;99.72;101255.12;5140599;57;1138979;-85
2021/11/18 15:06:47;;;;;;;21.12;6.58;;;;;;;7.98;99.88;101256.81;5140731;57;1139251;-86
2021/11/18 15:11:57;;;;;;;17.00;6.80;;;;;;;7.97;100.00;101265.66;5140651;57;1139165;-85
2021/11/18 15:17:05;;;;;;;43.23;13.10;;;;;;;7.97;100.00;101249.84;5139206;57;1141021;-85
2021/11/18 15:22:13;;;;;;;53.93;18.07;;;;;;;7.97;100.00;101249.84;5140938;57;1143333;-85
2021/11/18 15:27:19;;;;;;;242.87;135.10;;;;;;;7.98;100.00;101233.96;5140817;57;1143169;-85
2021/11/18 15:32:29;;;;;;;144.93;92.50;;;;;;;7.98;100.00;101208.94;5140524;57;1147324;-85
2021/11/18 15:37:37;;;;;;;147.83;49.90;;;;;;;7.99;100.00;101212.42;5140674;57;1145372;-85
2021/11/18 15:42:44;;;;;;;96.93;35.60;;;;;;;7.97;100.00;101209.87;5140552;57;1145205;-85
2021/11/18 15:47:49;;;;;;;104.70;42.93;;;;;;;7.98;100.00;101208.09;5140442;57;1143183;-85
2021/11/18 15:52:55;;;;;;;58.10;36.37;;;;;;;7.99;100.00;101216.37;5144850;57;1143118;-84
2021/11/18 15:58:01;;;;;;;49.77;12.37;;;;;;;8.01;100.00;101221.95;5154153;57;1141066;-85
2021/11/18 16:03:10;;;;;;;46.07;13.43;;;;;;;8.01;100.00;101226.36;5153834;57;1141083;-85
2021/11/18 16:08:23;;;;;;;29.23;11.50;;;;;;;8.00;100.00;101221.56;5153867;57;1141097;-85
2021/11/18 16:13:30;;;;;;;43.10;11.77;;;;;;;8.04;100.00;101216.98;5153894;57;1141033;-85
2021/11/18 16:18:38;;;;;;;35.33;8.87;;;;;;;8.06;100.00;101226.97;5153913;57;1141104;-84
2021/11/18 16:23:46;;;;;;;30.93;11.50;;;;;;;8.06;100.00;101224.33;5144905;57;1138983;-85
2021/11/18 16:28:57;;;;;;;23.33;6.70;;;;;;;8.07;100.00;101236.57;5153989;57;1141140;-87
2021/11/18 16:34:04;;;;;;;22.00;8.17;;;;;;;8.02;100.00;101227.59;5153771;57;1139102;-86
2021/11/18 16:39:10;;;;;;;41.17;11.67;;;;;;;8.10;100.00;101241.64;5154060;57;1139146;-86
2021/11/18 16:44:16;;;;;;;42.27;13.43;;;;;;;8.12;100.00;101239.31;5154222;57;1141068;-85
2021/11/18 16:49:22;;;;;;;45.92;13.20;;;;;;;8.15;100.00;101225.59;5144871;57;1140953;-92
2021/11/18 16:54:28;;;;;;;47.90;10.30;;;;;;;8.12;100.00;101216.06;5069336;57;1141032;-88
2021/11/18 16:59:34;;;;;;;29.87;7.80;;;;;;;8.11;100.00;101213.90;5079460;58;1140970;-84
2021/11/18 17:04:41;;;;;;;22.03;8.37;;;;;;;8.12;100.00;101207.70;5063596;58;1136853;-84
2021/11/18 17:09:48;;;;;;;53.57;27.07;;;;;;;8.10;100.00;101208.24;5082137;58;1136926;-86
2021/11/18 17:14:54;;;;;;;28.87;8.40;;;;;;;8.11;100.00;101197.23;5034005;57;1143340;-88
2021/11/18 17:20:00;;;;;;;53.50;16.47;;;;;;;8.08;100.00;101196.97;5040052;58;1140936;-88
2021/11/18 17:25:11;;;;;;;43.92;9.75;;;;;;;8.08;100.00;101185.12;4914372;58;1143057;-88
2021/11/18 17:30:26;;;;;;;31.57;10.63;;;;;;;8.08;100.00;101196.12;4988731;59;1141394;-91
2021/11/18 17:35:34;;;;;;;20.53;8.13;;;;;;;8.06;100.00;101182.19;5073217;57;1142996;-90
2021/11/18 17:40:40;;;;;;;86.63;33.93;;;;;;;8.04;100.00;101166.46;5186281;56;1140962;-88
2021/11/18 17:45:50;;;;;;;66.80;26.77;;;;;;;8.06;100.00;101180.39;5193183;56;1143134;-85
2021/11/18 17:51:00;;;;;;;28.83;11.93;;;;;;;8.03;100.00;101170.50;5133406;57;1143244;-91
2021/11/18 17:56:08;;;;;;;34.83;12.03;;;;;;;8.07;100.00;101162.80;5102597;57;1143028;-81
2021/11/18 18:01:28;;;;;;;27.97;8.80;;;;;;;8.08;100.00;101160.09;5228859;56;1143146;-86
2021/11/18 18:06:38;;;;;;;33.63;8.60;;;;;;;8.10;100.00;101148.97;5130867;56;1141007;-90
2021/11/18 18:11:44;;;;;;;34.47;10.40;;;;;;;8.13;100.00;101144.84;5193954;56;1141027;-83
2021/11/18 18:16:57;;;;;;;36.00;10.97;;;;;;;8.16;100.00;101142.51;5076217;57;1143097;-83
2021/11/18 18:22:06;;;;;;;32.03;10.13;;;;;;;8.19;100.00;101138.85;5147268;56;1143113;-82
2021/11/18 18:27:16;;;;;;;26.80;8.77;;;;;;;8.19;100.00;101137.07;5152574;56;1143065;-83
2021/11/18 18:32:27;;;;;;;29.97;7.30;;;;;;;8.22;100.00;101136.05;5151060;56;1141091;-83
2021/11/18 18:37:37;;;;;;;31.90;9.20;;;;;;;8.25;100.00;101131.92;5154526;56;1141031;-81
2021/11/18 18:42:44;;;;;;;30.27;9.23;;;;;;;8.25;100.00;101120.88;5152218;56;1140905;-82
2021/11/18 18:47:53;;;;;;;30.17;8.70;;;;;;;8.29;100.00;101106.59;5027361;58;1141348;-83
2021/11/18 18:53:02;;;;;;;35.88;10.50;;;;;;;8.31;100.00;101106.52;5058466;57;1141217;-85
2021/11/18 18:58:10;;;;;;;45.67;12.53;;;;;;;8.32;100.00;101103.82;5144675;56;1143246;-82
2021/11/18 19:03:19;;;;;;;27.07;7.23;;;;;;;8.31;100.00;101086.74;5053313;57;1143183;-83
2021/11/18 19:08:28;;;;;;;35.23;10.90;;;;;;;8.31;100.00;101074.89;5132223;56;1141066;-82
2021/11/18 19:13:35;;;;;;;22.40;6.63;;;;;;;8.28;100.00;101069.80;5145588;56;1141147;-82
2021/11/18 19:18:45;;;;;;;23.23;6.63;;;;;;;8.29;100.00;101061.80;5143190;56;1139273;-84
2021/11/18 19:23:52;;;;;;;45.37;8.77;;;;;;;8.28;100.00;101035.06;5158246;56;1139006;-86
2021/11/18 19:29:05;;;;;;;32.37;10.90;;;;;;;8.28;100.00;101036.38;5122329;56;1139248;-86
2021/11/18 19:34:12;;;;;;;14.00;5.90;;;;;;;8.29;100.00;101011.73;5169527;56;1141012;-89
2021/11/18 19:39:18;;;;;;;18.57;7.33;;;;;;;8.28;100.00;101013.98;5150504;57;1139039;-84
2021/11/18 19:44:30;;;;;;;24.27;8.13;;;;;;;8.29;100.00;101018.31;5134051;57;1139061;-87
2021/11/18 19:49:35;;;;;;;17.17;5.77;;;;;;;8.26;100.00;101015.01;5188142;56;1138915;-86
2021/11/18 19:54:41;;;;;;;26.83;11.57;;;;;;;8.25;100.00;101021.25;5150639;56;1139006;-86
2021/11/18 19:59:48;;;;;;;20.47;6.33;;;;;;;8.22;100.00;101025.38;5112088;57;1141178;-88
2021/11/18 20:04:59;;;;;;;15.30;6.43;;;;;;;8.15;100.00;101020.93;5148955;56;1139140;-87
2021/11/18 20:10:13;;;;;;;12.70;5.15;;;;;;;8.09;100.00;101034.48;5119638;57;1138323;-87
2021/11/18 20:15:28;;;;;;;11.97;5.40;;;;;;;8.09;100.00;101034.48;4973816;58;1136870;-87
2021/11/18 20:20:49;;;;;;;21.87;7.03;;;;;;;8.04;100.00;100993.92;4994995;57;1140296;-87
2021/11/18 20:26:14;;;;;;;23.00;6.27;;;;;;;7.97;100.00;100984.67;4925803;58;1141302;-84
2021/11/18 20:31:35;;;;;;;21.90;6.70;;;;;;;7.93;100.00;101006.88;5155006;56;1141021;-87
2021/11/18 20:36:41;;;;;;;20.63;5.73;;;;;;;7.86;100.00;101002.89;5174397;56;1141163;-87
2021/11/18 20:41:47;;;;;;;17.07;7.73;;;;;;;7.82;100.00;101000.05;5176319;56;1141019;-88
2021/11/18 20:46:57;;;;;;;14.63;6.23;;;;;;;7.80;100.00;101005.02;5164537;56;1140985;-87
2021/11/18 20:52:07;;;;;;;19.83;6.40;;;;;;;7.77;100.00;100999.50;5169845;56;1140923;-87
2021/11/18 20:57:17;;;;;;;19.50;6.57;;;;;;;7.75;100.00;100988.20;5159836;56;1141291;-86
2021/11/18 21:02:28;;;;;;;17.10;6.73;;;;;;;7.74;100.00;100995.25;5142260;56;1141097;-88
2021/11/18 21:07:36;;;;;;;13.63;5.67;;;;;;;7.72;100.00;100964.22;5092143;57;1141073;-88
2021/11/18 21:12:43;;;;;;;13.97;5.67;;;;;;;7.71;100.00;100960.34;5099018;57;1141023;-86
2021/11/18 21:17:51;;;;;;;14.13;6.50;;;;;;;7.63;100.00;100959.50;5120155;57;1140959;-89
2021/11/18 21:22:58;;;;;;;11.23;4.67;;;;;;;7.63;100.00;100968.71;5120264;57;1140933;-86
2021/11/18 21:28:05;;;;;;;7.63;3.37;;;;;;;7.62;100.00;100964.84;5121238;57;1141024;-87
2021/11/18 21:33:11;;;;;;;7.57;4.43;;;;;;;7.61;100.00;100967.10;5121736;57;1139229;-89
2021/11/18 21:38:19;;;;;;;6.70;3.10;;;;;;;7.60;100.00;100961.45;5122171;57;1138908;-88
2021/11/18 21:43:29;;;;;;;6.83;4.03;;;;;;;7.59;100.00;100963.23;5122013;57;1138912;-86
2021/11/18 21:48:42;;;;;;;7.87;3.87;;;;;;;7.60;100.00;100953.55;5121648;57;1139131;-88
2021/11/18 21:53:55;;;;;;;6.47;3.72;;;;;;;7.60;100.00;100953.55;5122324;57;1139027;-87
2021/11/18 21:59:03;;;;;;;;;;;;;;;7.61;100.00;100946.04;5146677;57;1138866;-87
2021/11/18 22:04:14;;;;;;;5.28;3.85;;;;;;;7.61;100.00;100942.94;5159981;56;974292;-88
2021/11/18 22:09:25;;;;;;;6.80;3.47;;;;;;;7.58;100.00;100931.27;5157354;57;1134916;-89
2021/11/18 22:14:32;;;;;;;3.20;2.77;;;;;;;7.58;100.00;100930.42;5157062;56;1137257;-86
2021/11/18 22:19:38;;;;;;;5.67;3.80;;;;;;;7.59;100.00;100913.69;5156728;56;1136884;-86
2021/11/18 22:24:45;;;;;;;5.15;3.67;;;;;;;7.58;100.00;100918.11;5199573;56;1136856;-85
2021/11/18 22:29:51;;;;;;;4.30;3.30;;;;;;;7.60;100.00;100923.28;5169267;56;1136873;-87
2021/11/18 22:34:57;;;;;;;6.77;3.97;;;;;;;7.62;100.00;100914.84;5157193;57;1137097;-87
2021/11/18 22:40:07;;;;;;;6.63;3.57;;;;;;;7.62;100.00;100901.20;5157030;57;1136811;-88
2021/11/18 22:45:14;;;;;;;2.83;2.57;;;;;;;7.64;100.00;100899.77;4898321;60;1136879;-87
2021/11/18 22:50:20;;;;;;;2.67;2.53;;;;;;;7.64;100.00;100882.66;4915270;59;1136865;-87
2021/11/18 22:55:28;;;;;;;4.22;3.10;;;;;;;7.65;100.00;100896.20;4843592;59;1136896;-87
2021/11/18 23:00:50;;;;;;;5.87;2.93;;;;;;;7.66;100.00;100884.73;4828511;60;1136386;-86
2021/11/18 23:05:57;;;;;;;5.43;3.33;;;;;;;7.67;100.00;100883.80;4826221;60;1134911;-86
2021/11/18 23:11:04;;;;;;;3.42;3.00;;;;;;;7.68;100.00;100886.34;4841041;61;1139049;-88
2021/11/18 23:16:14;;;;;;;2.83;2.60;;;;;;;7.58;100.00;100858.89;4895132;60;1138971;-88
2021/11/18 23:21:22;;;;;;;5.47;3.20;;;;;;;7.70;100.00;100861.25;5009549;56;1138923;-87